sensor_id;sensor_type;location;lat;lon;timestamp;P1;durP1;ratioP1;P2;durP2;ratioP2
70715;SDS011;59053;50.832;12.882;2022-11-03T00:00:05;18.83;;;6.63;;
70715;SDS011;59053;50.832;12.882;2022-11-03T00:02:37;16.30;;;6.07;;
70715;SDS011;59053;50.832;12.882;2022-11-03T00:05:02;18.43;;;5.83;;
70715;SDS011;59053;50.832;12.882;2022-11-03T00:07:48;16.43;;;5.80;;
70715;SDS011;59053;50.832;12.882;2022-11-03T00:13:48;15.18;;;5.55;;
70715;SDS011;59053;50.832;12.882;2022-11-03T00:16:20;16.10;;;5.97;;
70715;SDS011;59053;50.832;12.882;2022-11-03T00:18:45;15.95;;;5.60;;
70715;SDS011;59053;50.832;12.882;2022-11-03T00:21:11;17.13;;;6.00;;
70715;SDS011;59053;50.832;12.882;2022-11-03T00:36:42;15.40;;;5.70;;
70715;SDS011;59053;50.832;12.882;2022-11-03T00:39:08;11.38;;;5.43;;
70715;SDS011;59053;50.832;12.882;2022-11-03T00:41:39;16.17;;;6.07;;
70715;SDS011;59053;50.832;12.882;2022-11-03T00:47:05;14.82;;;5.38;;
70715;SDS011;59053;50.832;12.882;2022-11-03T00:49:38;13.23;;;5.17;;
70715;SDS011;59053;50.832;12.882;2022-11-03T00:52:11;17.97;;;5.73;;
70715;SDS011;59053;50.832;12.882;2022-11-03T00:57:35;14.18;;;5.63;;
70715;SDS011;59053;50.832;12.882;2022-11-03T01:00:00;15.27;;;5.43;;
70715;SDS011;59053;50.832;12.882;2022-11-03T01:05:33;18.52;;;6.72;;
70715;SDS011;59053;50.832;12.882;2022-11-03T01:08:31;17.25;;;6.32;;
70715;SDS011;59053;50.832;12.882;2022-11-03T01:11:03;13.80;;;5.90;;
70715;SDS011;59053;50.832;12.882;2022-11-03T01:17:24;14.98;;;5.88;;
70715;SDS011;59053;50.832;12.882;2022-11-03T01:26:06;13.23;;;5.20;;
70715;SDS011;59053;50.832;12.882;2022-11-03T01:28:42;13.97;;;5.20;;
70715;SDS011;59053;50.832;12.882;2022-11-03T01:31:08;14.05;;;5.05;;
70715;SDS011;59053;50.832;12.882;2022-11-03T01:33:33;12.52;;;5.25;;
70715;SDS011;59053;50.832;12.882;2022-11-03T01:35:59;15.70;;;5.30;;
70715;SDS011;59053;50.832;12.882;2022-11-03T01:38:39;16.97;;;5.90;;
70715;SDS011;59053;50.832;12.882;2022-11-03T01:41:07;15.73;;;5.72;;
70715;SDS011;59053;50.832;12.882;2022-11-03T01:43:40;14.48;;;5.75;;
70715;SDS011;59053;50.832;12.882;2022-11-03T01:46:24;16.77;;;5.83;;
70715;SDS011;59053;50.832;12.882;2022-11-03T02:10:07;14.38;;;5.43;;
70715;SDS011;59053;50.832;12.882;2022-11-03T02:12:40;18.17;;;5.45;;
70715;SDS011;59053;50.832;12.882;2022-11-03T02:15:08;13.73;;;5.17;;
70715;SDS011;59053;50.832;12.882;2022-11-03T02:17:34;13.68;;;5.78;;
70715;SDS011;59053;50.832;12.882;2022-11-03T02:20:10;18.20;;;6.00;;
70715;SDS011;59053;50.832;12.882;2022-11-03T02:23:10;12.48;;;5.88;;
70715;SDS011;59053;50.832;12.882;2022-11-03T02:27:58;13.10;;;5.70;;
70715;SDS011;59053;50.832;12.882;2022-11-03T02:48:04;13.98;;;4.88;;
70715;SDS011;59053;50.832;12.882;2022-11-03T02:50:38;12.55;;;4.88;;
70715;SDS011;59053;50.832;12.882;2022-11-03T02:53:03;14.63;;;5.23;;
70715;SDS011;59053;50.832;12.882;2022-11-03T02:55:39;12.70;;;5.40;;
70715;SDS011;59053;50.832;12.882;2022-11-03T02:58:06;12.18;;;4.80;;
70715;SDS011;59053;50.832;12.882;2022-11-03T03:00:34;14.00;;;5.22;;
70715;SDS011;59053;50.832;12.882;2022-11-03T03:03:07;13.40;;;5.30;;
70715;SDS011;59053;50.832;12.882;2022-11-03T03:05:40;12.52;;;4.70;;
70715;SDS011;59053;50.832;12.882;2022-11-03T03:20:33;14.05;;;4.90;;
70715;SDS011;59053;50.832;12.882;2022-11-03T03:23:16;13.73;;;4.30;;
70715;SDS011;59053;50.832;12.882;2022-11-03T03:28:46;11.10;;;4.13;;
70715;SDS011;59053;50.832;12.882;2022-11-03T03:34:06;11.52;;;4.88;;
70715;SDS011;59053;50.832;12.882;2022-11-03T03:36:40;16.70;;;5.47;;
70715;SDS011;59053;50.832;12.882;2022-11-03T03:42:34;11.68;;;4.90;;
70715;SDS011;59053;50.832;12.882;2022-11-03T03:45:00;13.68;;;5.63;;
70715;SDS011;59053;50.832;12.882;2022-11-03T03:47:34;15.37;;;5.33;;
70715;SDS011;59053;50.832;12.882;2022-11-03T03:49:59;14.07;;;5.40;;
70715;SDS011;59053;50.832;12.882;2022-11-03T03:52:25;12.98;;;4.95;;
70715;SDS011;59053;50.832;12.882;2022-11-03T03:54:51;13.93;;;4.90;;
70715;SDS011;59053;50.832;12.882;2022-11-03T03:57:22;14.10;;;4.70;;
70715;SDS011;59053;50.832;12.882;2022-11-03T03:59:48;9.73;;;4.18;;
70715;SDS011;59053;50.832;12.882;2022-11-03T04:05:20;11.35;;;4.30;;
70715;SDS011;59053;50.832;12.882;2022-11-03T04:07:45;15.07;;;4.70;;
70715;SDS011;59053;50.832;12.882;2022-11-03T04:10:18;11.32;;;4.80;;
70715;SDS011;59053;50.832;12.882;2022-11-03T04:15:59;10.38;;;4.32;;
70715;SDS011;59053;50.832;12.882;2022-11-03T04:18:44;13.57;;;4.50;;
70715;SDS011;59053;50.832;12.882;2022-11-03T04:21:27;12.90;;;4.78;;
70715;SDS011;59053;50.832;12.882;2022-11-03T04:24:20;14.27;;;4.60;;
70715;SDS011;59053;50.832;12.882;2022-11-03T04:29:49;13.65;;;4.70;;
70715;SDS011;59053;50.832;12.882;2022-11-03T04:32:15;11.95;;;4.28;;
70715;SDS011;59053;50.832;12.882;2022-11-03T04:37:40;13.90;;;4.30;;
70715;SDS011;59053;50.832;12.882;2022-11-03T04:40:07;12.95;;;4.55;;
70715;SDS011;59053;50.832;12.882;2022-11-03T04:42:36;9.27;;;4.18;;
70715;SDS011;59053;50.832;12.882;2022-11-03T04:45:05;11.93;;;4.63;;
70715;SDS011;59053;50.832;12.882;2022-11-03T05:00:06;14.73;;;5.00;;
70715;SDS011;59053;50.832;12.882;2022-11-03T05:05:22;14.88;;;5.10;;
70715;SDS011;59053;50.832;12.882;2022-11-03T05:07:51;11.67;;;4.17;;
70715;SDS011;59053;50.832;12.882;2022-11-03T05:13:14;13.10;;;4.60;;
70715;SDS011;59053;50.832;12.882;2022-11-03T05:15:41;8.68;;;3.88;;
70715;SDS011;59053;50.832;12.882;2022-11-03T05:18:17;12.70;;;4.30;;
70715;SDS011;59053;50.832;12.882;2022-11-03T05:20:53;14.10;;;5.03;;
70715;SDS011;59053;50.832;12.882;2022-11-03T05:23:20;18.30;;;4.80;;
70715;SDS011;59053;50.832;12.882;2022-11-03T05:32:10;14.30;;;5.03;;
70715;SDS011;59053;50.832;12.882;2022-11-03T05:34:51;14.93;;;5.18;;
70715;SDS011;59053;50.832;12.882;2022-11-03T05:37:40;11.80;;;4.90;;
70715;SDS011;59053;50.832;12.882;2022-11-03T05:43:01;15.07;;;4.57;;
70715;SDS011;59053;50.832;12.882;2022-11-03T05:45:40;19.20;;;4.73;;
70715;SDS011;59053;50.832;12.882;2022-11-03T05:48:17;10.88;;;4.43;;
70715;SDS011;59053;50.832;12.882;2022-11-03T05:53:38;14.63;;;5.53;;
70715;SDS011;59053;50.832;12.882;2022-11-03T05:56:18;13.77;;;5.32;;
70715;SDS011;59053;50.832;12.882;2022-11-03T05:58:44;15.73;;;5.50;;
70715;SDS011;59053;50.832;12.882;2022-11-03T06:03:59;14.93;;;5.13;;
70715;SDS011;59053;50.832;12.882;2022-11-03T06:06:27;12.82;;;5.40;;
70715;SDS011;59053;50.832;12.882;2022-11-03T06:17:26;15.30;;;4.67;;
70715;SDS011;59053;50.832;12.882;2022-11-03T06:19:53;15.20;;;4.78;;
70715;SDS011;59053;50.832;12.882;2022-11-03T06:22:23;13.13;;;4.85;;
70715;SDS011;59053;50.832;12.882;2022-11-03T06:24:49;15.15;;;4.90;;
70715;SDS011;59053;50.832;12.882;2022-11-03T06:27:18;13.00;;;5.13;;
70715;SDS011;59053;50.832;12.882;2022-11-03T06:32:31;13.05;;;5.05;;
70715;SDS011;59053;50.832;12.882;2022-11-03T06:34:57;15.43;;;5.73;;
70715;SDS011;59053;50.832;12.882;2022-11-03T06:37:26;16.13;;;5.47;;
70715;SDS011;59053;50.832;12.882;2022-11-03T06:42:43;13.65;;;5.35;;
70715;SDS011;59053;50.832;12.882;2022-11-03T06:45:26;12.87;;;4.80;;
70715;SDS011;59053;50.832;12.882;2022-11-03T06:47:52;13.13;;;5.13;;
70715;SDS011;59053;50.832;12.882;2022-11-03T06:50:24;11.63;;;5.30;;
70715;SDS011;59053;50.832;12.882;2022-11-03T06:52:52;10.43;;;4.55;;
70715;SDS011;59053;50.832;12.882;2022-11-03T06:57:43;11.43;;;4.67;;
70715;SDS011;59053;50.832;12.882;2022-11-03T07:02:48;13.85;;;4.70;;
70715;SDS011;59053;50.832;12.882;2022-11-03T07:05:18;14.50;;;5.10;;
70715;SDS011;59053;50.832;12.882;2022-11-03T07:07:45;18.43;;;5.40;;
70715;SDS011;59053;50.832;12.882;2022-11-03T07:10:11;15.00;;;5.72;;
70715;SDS011;59053;50.832;12.882;2022-11-03T07:12:36;13.27;;;5.10;;
70715;SDS011;59053;50.832;12.882;2022-11-03T07:15:01;33.47;;;6.53;;
70715;SDS011;59053;50.832;12.882;2022-11-03T07:17:27;18.70;;;5.90;;
70715;SDS011;59053;50.832;12.882;2022-11-03T07:19:52;18.93;;;5.90;;
70715;SDS011;59053;50.832;12.882;2022-11-03T07:22:18;17.47;;;5.40;;
70715;SDS011;59053;50.832;12.882;2022-11-03T07:24:46;17.40;;;5.95;;
70715;SDS011;59053;50.832;12.882;2022-11-03T07:29:40;27.13;;;6.45;;
70715;SDS011;59053;50.832;12.882;2022-11-03T07:32:11;25.15;;;6.40;;
70715;SDS011;59053;50.832;12.882;2022-11-03T07:34:38;18.47;;;5.83;;
70715;SDS011;59053;50.832;12.882;2022-11-03T07:37:04;18.37;;;5.73;;
70715;SDS011;59053;50.832;12.882;2022-11-03T07:39:32;23.10;;;6.27;;
70715;SDS011;59053;50.832;12.882;2022-11-03T07:41:58;20.70;;;6.20;;
70715;SDS011;59053;50.832;12.882;2022-11-03T07:44:27;19.65;;;6.40;;
70715;SDS011;59053;50.832;12.882;2022-11-03T07:46:53;16.65;;;5.45;;
70715;SDS011;59053;50.832;12.882;2022-11-03T07:49:25;22.33;;;5.57;;
70715;SDS011;59053;50.832;12.882;2022-11-03T07:51:51;14.97;;;4.73;;
70715;SDS011;59053;50.832;12.882;2022-11-03T07:54:20;20.50;;;5.73;;
70715;SDS011;59053;50.832;12.882;2022-11-03T07:59:17;7.70;;;3.65;;
70715;SDS011;59053;50.832;12.882;2022-11-03T08:01:44;8.77;;;2.50;;
70715;SDS011;59053;50.832;12.882;2022-11-03T08:04:12;8.13;;;2.30;;
70715;SDS011;59053;50.832;12.882;2022-11-03T08:06:40;7.47;;;1.70;;
70715;SDS011;59053;50.832;12.882;2022-11-03T08:09:06;6.53;;;1.77;;
70715;SDS011;59053;50.832;12.882;2022-11-03T08:11:31;6.60;;;1.67;;
70715;SDS011;59053;50.832;12.882;2022-11-03T08:13:56;6.47;;;1.40;;
70715;SDS011;59053;50.832;12.882;2022-11-03T08:16:21;4.13;;;1.50;;
70715;SDS011;59053;50.832;12.882;2022-11-03T08:18:47;5.77;;;1.40;;
70715;SDS011;59053;50.832;12.882;2022-11-03T08:21:12;5.87;;;1.53;;
70715;SDS011;59053;50.832;12.882;2022-11-03T08:23:38;5.80;;;1.63;;
70715;SDS011;59053;50.832;12.882;2022-11-03T08:26:03;5.50;;;1.80;;
70715;SDS011;59053;50.832;12.882;2022-11-03T08:28:29;5.67;;;1.67;;
70715;SDS011;59053;50.832;12.882;2022-11-03T08:30:54;4.73;;;1.50;;
70715;SDS011;59053;50.832;12.882;2022-11-03T08:33:19;6.83;;;2.07;;
70715;SDS011;59053;50.832;12.882;2022-11-03T08:35:44;3.50;;;1.40;;
70715;SDS011;59053;50.832;12.882;2022-11-03T08:38:10;4.90;;;1.40;;
70715;SDS011;59053;50.832;12.882;2022-11-03T08:40:35;7.03;;;1.70;;
70715;SDS011;59053;50.832;12.882;2022-11-03T08:43:00;5.40;;;1.50;;
70715;SDS011;59053;50.832;12.882;2022-11-03T08:45:27;7.45;;;1.73;;
70715;SDS011;59053;50.832;12.882;2022-11-03T08:47:53;7.18;;;1.60;;
70715;SDS011;59053;50.832;12.882;2022-11-03T08:50:18;6.40;;;1.57;;
70715;SDS011;59053;50.832;12.882;2022-11-03T08:52:43;5.10;;;1.60;;
70715;SDS011;59053;50.832;12.882;2022-11-03T08:55:09;4.33;;;1.60;;
70715;SDS011;59053;50.832;12.882;2022-11-03T08:57:34;3.93;;;1.60;;
70715;SDS011;59053;50.832;12.882;2022-11-03T08:59:59;5.03;;;1.60;;
70715;SDS011;59053;50.832;12.882;2022-11-03T09:02:24;6.10;;;1.83;;
70715;SDS011;59053;50.832;12.882;2022-11-03T09:04:50;5.20;;;1.70;;
70715;SDS011;59053;50.832;12.882;2022-11-03T09:07:15;5.40;;;1.80;;
70715;SDS011;59053;50.832;12.882;2022-11-03T09:09:40;4.90;;;1.50;;
70715;SDS011;59053;50.832;12.882;2022-11-03T09:12:06;6.73;;;1.90;;
70715;SDS011;59053;50.832;12.882;2022-11-03T09:14:31;4.67;;;1.93;;
70715;SDS011;59053;50.832;12.882;2022-11-03T09:16:56;7.47;;;1.97;;
70715;SDS011;59053;50.832;12.882;2022-11-03T09:19:21;6.47;;;1.77;;
70715;SDS011;59053;50.832;12.882;2022-11-03T09:21:46;6.87;;;1.83;;
70715;SDS011;59053;50.832;12.882;2022-11-03T09:24:12;4.03;;;1.90;;
70715;SDS011;59053;50.832;12.882;2022-11-03T09:26:37;30.37;;;3.60;;
70715;SDS011;59053;50.832;12.882;2022-11-03T09:29:02;5.57;;;1.73;;
70715;SDS011;59053;50.832;12.882;2022-11-03T09:31:28;2.80;;;1.50;;
70715;SDS011;59053;50.832;12.882;2022-11-03T09:33:53;5.87;;;1.87;;
70715;SDS011;59053;50.832;12.882;2022-11-03T09:36:18;6.07;;;1.97;;
70715;SDS011;59053;50.832;12.882;2022-11-03T09:38:44;5.53;;;1.77;;
70715;SDS011;59053;50.832;12.882;2022-11-03T09:41:09;5.90;;;1.87;;
70715;SDS011;59053;50.832;12.882;2022-11-03T09:43:42;6.63;;;2.15;;
70715;SDS011;59053;50.832;12.882;2022-11-03T09:46:07;4.75;;;1.70;;
70715;SDS011;59053;50.832;12.882;2022-11-03T09:48:32;6.07;;;2.00;;
70715;SDS011;59053;50.832;12.882;2022-11-03T09:50:58;6.43;;;1.90;;
70715;SDS011;59053;50.832;12.882;2022-11-03T09:53:23;6.40;;;1.90;;
70715;SDS011;59053;50.832;12.882;2022-11-03T09:55:48;6.70;;;2.17;;
70715;SDS011;59053;50.832;12.882;2022-11-03T09:58:14;5.43;;;2.00;;
70715;SDS011;59053;50.832;12.882;2022-11-03T10:00:40;6.57;;;1.85;;
70715;SDS011;59053;50.832;12.882;2022-11-03T10:03:05;3.93;;;1.87;;
70715;SDS011;59053;50.832;12.882;2022-11-03T10:05:30;5.03;;;1.80;;
70715;SDS011;59053;50.832;12.882;2022-11-03T10:07:59;5.07;;;1.90;;
70715;SDS011;59053;50.832;12.882;2022-11-03T10:10:27;9.37;;;2.30;;
70715;SDS011;59053;50.832;12.882;2022-11-03T10:12:53;5.28;;;1.75;;
70715;SDS011;59053;50.832;12.882;2022-11-03T10:15:20;7.13;;;2.00;;
70715;SDS011;59053;50.832;12.882;2022-11-03T10:17:46;6.80;;;1.80;;
70715;SDS011;59053;50.832;12.882;2022-11-03T10:20:13;5.20;;;1.70;;
70715;SDS011;59053;50.832;12.882;2022-11-03T10:22:39;4.70;;;1.80;;
70715;SDS011;59053;50.832;12.882;2022-11-03T10:27:49;3.63;;;1.77;;
70715;SDS011;59053;50.832;12.882;2022-11-03T10:30:14;5.33;;;1.63;;
70715;SDS011;59053;50.832;12.882;2022-11-03T10:32:39;12.50;;;2.10;;
70715;SDS011;59053;50.832;12.882;2022-11-03T10:37:49;5.93;;;1.92;;
70715;SDS011;59053;50.832;12.882;2022-11-03T10:40:33;6.70;;;1.60;;
70715;SDS011;59053;50.832;12.882;2022-11-03T10:42:59;5.13;;;2.00;;
70715;SDS011;59053;50.832;12.882;2022-11-03T10:45:24;8.37;;;1.90;;
70715;SDS011;59053;50.832;12.882;2022-11-03T10:47:59;7.93;;;2.43;;
70715;SDS011;59053;50.832;12.882;2022-11-03T10:50:26;8.38;;;1.92;;
70715;SDS011;59053;50.832;12.882;2022-11-03T10:52:51;8.05;;;1.70;;
70715;SDS011;59053;50.832;12.882;2022-11-03T10:55:17;6.60;;;2.43;;
70715;SDS011;59053;50.832;12.882;2022-11-03T10:57:43;7.43;;;1.80;;
70715;SDS011;59053;50.832;12.882;2022-11-03T11:00:11;7.03;;;1.90;;
70715;SDS011;59053;50.832;12.882;2022-11-03T11:02:37;7.28;;;1.80;;
70715;SDS011;59053;50.832;12.882;2022-11-03T11:05:13;6.00;;;1.80;;
70715;SDS011;59053;50.832;12.882;2022-11-03T11:07:39;4.90;;;1.40;;
70715;SDS011;59053;50.832;12.882;2022-11-03T11:12:31;6.07;;;1.92;;
70715;SDS011;59053;50.832;12.882;2022-11-03T11:14:57;6.83;;;1.87;;
70715;SDS011;59053;50.832;12.882;2022-11-03T11:17:44;6.15;;;1.77;;
70715;SDS011;59053;50.832;12.882;2022-11-03T11:22:49;4.30;;;1.40;;
70715;SDS011;59053;50.832;12.882;2022-11-03T11:25:16;4.38;;;1.65;;
70715;SDS011;59053;50.832;12.882;2022-11-03T11:35:10;4.53;;;1.70;;
70715;SDS011;59053;50.832;12.882;2022-11-03T11:37:36;4.57;;;1.70;;
70715;SDS011;59053;50.832;12.882;2022-11-03T11:40:07;6.07;;;1.60;;
70715;SDS011;59053;50.832;12.882;2022-11-03T11:42:33;5.10;;;1.70;;
70715;SDS011;59053;50.832;12.882;2022-11-03T11:44:59;5.60;;;2.00;;
70715;SDS011;59053;50.832;12.882;2022-11-03T11:47:27;4.82;;;1.60;;
70715;SDS011;59053;50.832;12.882;2022-11-03T11:52:31;5.38;;;1.40;;
70715;SDS011;59053;50.832;12.882;2022-11-03T11:54:57;5.10;;;1.50;;
70715;SDS011;59053;50.832;12.882;2022-11-03T11:57:22;5.17;;;1.80;;
70715;SDS011;59053;50.832;12.882;2022-11-03T11:59:47;4.80;;;1.50;;
70715;SDS011;59053;50.832;12.882;2022-11-03T12:02:17;3.85;;;1.50;;
70715;SDS011;59053;50.832;12.882;2022-11-03T12:04:45;6.38;;;1.80;;
70715;SDS011;59053;50.832;12.882;2022-11-03T12:07:11;4.47;;;1.58;;
70715;SDS011;59053;50.832;12.882;2022-11-03T12:09:37;4.40;;;1.50;;
70715;SDS011;59053;50.832;12.882;2022-11-03T12:12:04;6.63;;;1.60;;
70715;SDS011;59053;50.832;12.882;2022-11-03T12:14:36;3.87;;;1.70;;
70715;SDS011;59053;50.832;12.882;2022-11-03T12:22:11;20.00;;;2.03;;
70715;SDS011;59053;50.832;12.882;2022-11-03T12:24:59;7.07;;;1.77;;
70715;SDS011;59053;50.832;12.882;2022-11-03T12:29:51;7.05;;;1.90;;
70715;SDS011;59053;50.832;12.882;2022-11-03T12:32:16;6.07;;;1.80;;
70715;SDS011;59053;50.832;12.882;2022-11-03T12:34:42;11.30;;;1.92;;
70715;SDS011;59053;50.832;12.882;2022-11-03T12:37:07;4.13;;;1.43;;
70715;SDS011;59053;50.832;12.882;2022-11-03T12:39:33;3.93;;;1.50;;
70715;SDS011;59053;50.832;12.882;2022-11-03T12:41:58;3.90;;;1.60;;
70715;SDS011;59053;50.832;12.882;2022-11-03T12:44:24;3.23;;;1.47;;
70715;SDS011;59053;50.832;12.882;2022-11-03T12:46:49;7.33;;;1.80;;
70715;SDS011;59053;50.832;12.882;2022-11-03T12:49:14;5.33;;;1.70;;
70715;SDS011;59053;50.832;12.882;2022-11-03T12:51:40;4.40;;;1.63;;
70715;SDS011;59053;50.832;12.882;2022-11-03T12:54:05;4.90;;;1.83;;
70715;SDS011;59053;50.832;12.882;2022-11-03T12:56:30;4.33;;;1.50;;
70715;SDS011;59053;50.832;12.882;2022-11-03T12:58:55;5.27;;;1.80;;
70715;SDS011;59053;50.832;12.882;2022-11-03T13:01:21;5.50;;;1.53;;
70715;SDS011;59053;50.832;12.882;2022-11-03T13:03:46;3.53;;;1.60;;
70715;SDS011;59053;50.832;12.882;2022-11-03T13:06:11;4.93;;;1.97;;
70715;SDS011;59053;50.832;12.882;2022-11-03T13:08:39;4.72;;;1.98;;
70715;SDS011;59053;50.832;12.882;2022-11-03T13:11:04;7.00;;;1.70;;
70715;SDS011;59053;50.832;12.882;2022-11-03T13:13:49;5.43;;;1.75;;
70715;SDS011;59053;50.832;12.882;2022-11-03T13:16:14;3.50;;;1.80;;
70715;SDS011;59053;50.832;12.882;2022-11-03T13:18:40;3.53;;;1.80;;
70715;SDS011;59053;50.832;12.882;2022-11-03T13:21:05;6.10;;;1.70;;
70715;SDS011;59053;50.832;12.882;2022-11-03T13:23:30;6.33;;;2.17;;
70715;SDS011;59053;50.832;12.882;2022-11-03T13:25:55;7.17;;;2.07;;
70715;SDS011;59053;50.832;12.882;2022-11-03T13:28:20;9.37;;;2.00;;
70715;SDS011;59053;50.832;12.882;2022-11-03T13:30:46;4.23;;;2.00;;
70715;SDS011;59053;50.832;12.882;2022-11-03T13:33:11;6.13;;;2.35;;
70715;SDS011;59053;50.832;12.882;2022-11-03T13:35:37;9.23;;;2.30;;
70715;SDS011;59053;50.832;12.882;2022-11-03T13:38:02;6.90;;;2.20;;
70715;SDS011;59053;50.832;12.882;2022-11-03T13:40:27;10.73;;;2.40;;
70715;SDS011;59053;50.832;12.882;2022-11-03T13:42:52;5.23;;;2.40;;
70715;SDS011;59053;50.832;12.882;2022-11-03T13:45:18;7.47;;;2.20;;
70715;SDS011;59053;50.832;12.882;2022-11-03T13:47:43;5.50;;;2.30;;
70715;SDS011;59053;50.832;12.882;2022-11-03T13:50:08;6.70;;;2.37;;
70715;SDS011;59053;50.832;12.882;2022-11-03T13:52:35;7.40;;;2.40;;
70715;SDS011;59053;50.832;12.882;2022-11-03T13:55:00;6.70;;;2.40;;
70715;SDS011;59053;50.832;12.882;2022-11-03T13:57:26;6.80;;;2.40;;
70715;SDS011;59053;50.832;12.882;2022-11-03T13:59:52;7.50;;;2.65;;
70715;SDS011;59053;50.832;12.882;2022-11-03T14:02:17;6.97;;;2.50;;
70715;SDS011;59053;50.832;12.882;2022-11-03T14:04:43;6.97;;;2.70;;
70715;SDS011;59053;50.832;12.882;2022-11-03T14:07:10;7.30;;;2.75;;
70715;SDS011;59053;50.832;12.882;2022-11-03T14:09:35;7.15;;;2.80;;
70715;SDS011;59053;50.832;12.882;2022-11-03T14:12:01;8.20;;;2.97;;
70715;SDS011;59053;50.832;12.882;2022-11-03T14:14:45;6.43;;;2.87;;
70715;SDS011;59053;50.832;12.882;2022-11-03T14:17:10;8.83;;;2.87;;
70715;SDS011;59053;50.832;12.882;2022-11-03T14:19:36;6.97;;;2.83;;
70715;SDS011;59053;50.832;12.882;2022-11-03T14:22:17;6.37;;;2.50;;
70715;SDS011;59053;50.832;12.882;2022-11-03T14:24:42;6.68;;;2.72;;
70715;SDS011;59053;50.832;12.882;2022-11-03T14:27:08;6.28;;;3.10;;
70715;SDS011;59053;50.832;12.882;2022-11-03T14:29:33;7.80;;;2.80;;
70715;SDS011;59053;50.832;12.882;2022-11-03T14:31:58;10.07;;;2.83;;
70715;SDS011;59053;50.832;12.882;2022-11-03T14:34:24;9.00;;;2.80;;
70715;SDS011;59053;50.832;12.882;2022-11-03T14:36:49;11.67;;;3.23;;
70715;SDS011;59053;50.832;12.882;2022-11-03T14:39:14;8.97;;;3.33;;
70715;SDS011;59053;50.832;12.882;2022-11-03T14:41:40;10.30;;;3.10;;
70715;SDS011;59053;50.832;12.882;2022-11-03T14:44:24;10.23;;;3.20;;
70715;SDS011;59053;50.832;12.882;2022-11-03T14:47:06;8.27;;;3.30;;
70715;SDS011;59053;50.832;12.882;2022-11-03T14:49:32;13.55;;;3.40;;
70715;SDS011;59053;50.832;12.882;2022-11-03T14:51:58;11.25;;;3.38;;
70715;SDS011;59053;50.832;12.882;2022-11-03T14:54:23;9.90;;;3.33;;
70715;SDS011;59053;50.832;12.882;2022-11-03T14:56:49;8.97;;;3.37;;
70715;SDS011;59053;50.832;12.882;2022-11-03T14:59:14;8.47;;;3.40;;
70715;SDS011;59053;50.832;12.882;2022-11-03T15:01:40;10.00;;;3.50;;
70715;SDS011;59053;50.832;12.882;2022-11-03T15:04:05;11.70;;;3.60;;
70715;SDS011;59053;50.832;12.882;2022-11-03T15:06:32;10.20;;;3.73;;
70715;SDS011;59053;50.832;12.882;2022-11-03T15:12:06;8.95;;;3.72;;
70715;SDS011;59053;50.832;12.882;2022-11-03T15:14:32;10.40;;;3.83;;
70715;SDS011;59053;50.832;12.882;2022-11-03T15:17:02;10.77;;;4.10;;
70715;SDS011;59053;50.832;12.882;2022-11-03T15:19:27;10.18;;;4.15;;
70715;SDS011;59053;50.832;12.882;2022-11-03T15:21:52;15.80;;;4.30;;
70715;SDS011;59053;50.832;12.882;2022-11-03T15:24:18;14.00;;;4.57;;
70715;SDS011;59053;50.832;12.882;2022-11-03T15:26:43;9.60;;;4.30;;
70715;SDS011;59053;50.832;12.882;2022-11-03T15:29:08;16.40;;;4.70;;
70715;SDS011;59053;50.832;12.882;2022-11-03T15:31:33;15.13;;;4.65;;
70715;SDS011;59053;50.832;12.882;2022-11-03T15:33:59;13.40;;;4.90;;
70715;SDS011;59053;50.832;12.882;2022-11-03T15:36:24;10.17;;;4.20;;
70715;SDS011;59053;50.832;12.882;2022-11-03T15:38:49;12.90;;;4.93;;
70715;SDS011;59053;50.832;12.882;2022-11-03T15:41:15;14.33;;;4.80;;
70715;SDS011;59053;50.832;12.882;2022-11-03T15:43:40;13.90;;;5.20;;
70715;SDS011;59053;50.832;12.882;2022-11-03T15:46:06;14.02;;;4.70;;
70715;SDS011;59053;50.832;12.882;2022-11-03T15:48:32;16.93;;;5.90;;
70715;SDS011;59053;50.832;12.882;2022-11-03T15:51:15;13.23;;;5.00;;
70715;SDS011;59053;50.832;12.882;2022-11-03T15:53:41;12.10;;;4.50;;
70715;SDS011;59053;50.832;12.882;2022-11-03T15:56:07;15.80;;;4.60;;
70715;SDS011;59053;50.832;12.882;2022-11-03T16:04:57;10.82;;;4.10;;
70715;SDS011;59053;50.832;12.882;2022-11-03T16:07:22;13.50;;;4.03;;
70715;SDS011;59053;50.832;12.882;2022-11-03T16:09:54;12.60;;;4.80;;
70715;SDS011;59053;50.832;12.882;2022-11-03T16:12:19;12.73;;;4.27;;
70715;SDS011;59053;50.832;12.882;2022-11-03T16:14:44;12.03;;;4.67;;
70715;SDS011;59053;50.832;12.882;2022-11-03T16:17:24;13.33;;;4.90;;
70715;SDS011;59053;50.832;12.882;2022-11-03T16:19:50;13.97;;;4.83;;
70715;SDS011;59053;50.832;12.882;2022-11-03T16:22:15;13.10;;;4.40;;
70715;SDS011;59053;50.832;12.882;2022-11-03T16:24:40;14.93;;;4.53;;
70715;SDS011;59053;50.832;12.882;2022-11-03T16:27:08;11.87;;;5.00;;
70715;SDS011;59053;50.832;12.882;2022-11-03T16:29:33;14.90;;;5.47;;
70715;SDS011;59053;50.832;12.882;2022-11-03T16:31:59;16.38;;;5.00;;
70715;SDS011;59053;50.832;12.882;2022-11-03T16:34:24;14.43;;;4.87;;
70715;SDS011;59053;50.832;12.882;2022-11-03T16:36:49;12.43;;;4.90;;
70715;SDS011;59053;50.832;12.882;2022-11-03T16:39:14;12.20;;;4.70;;
70715;SDS011;59053;50.832;12.882;2022-11-03T16:41:40;13.93;;;4.70;;
70715;SDS011;59053;50.832;12.882;2022-11-03T16:44:05;12.97;;;4.83;;
70715;SDS011;59053;50.832;12.882;2022-11-03T16:46:30;11.20;;;4.97;;
70715;SDS011;59053;50.832;12.882;2022-11-03T16:48:55;13.63;;;5.60;;
70715;SDS011;59053;50.832;12.882;2022-11-03T16:51:21;16.90;;;5.43;;
70715;SDS011;59053;50.832;12.882;2022-11-03T16:53:46;13.00;;;5.30;;
70715;SDS011;59053;50.832;12.882;2022-11-03T16:56:11;15.00;;;5.10;;
70715;SDS011;59053;50.832;12.882;2022-11-03T16:58:36;15.47;;;5.60;;
70715;SDS011;59053;50.832;12.882;2022-11-03T17:01:08;17.77;;;5.50;;
70715;SDS011;59053;50.832;12.882;2022-11-03T17:03:41;15.70;;;5.90;;
70715;SDS011;59053;50.832;12.882;2022-11-03T17:06:21;16.10;;;5.72;;
70715;SDS011;59053;50.832;12.882;2022-11-03T17:12:03;13.05;;;5.70;;
70715;SDS011;59053;50.832;12.882;2022-11-03T17:14:28;12.57;;;5.65;;
70715;SDS011;59053;50.832;12.882;2022-11-03T17:22:41;13.30;;;5.65;;
70715;SDS011;59053;50.832;12.882;2022-11-03T17:25:07;11.70;;;5.70;;
70715;SDS011;59053;50.832;12.882;2022-11-03T17:35:49;22.87;;;7.20;;
70715;SDS011;59053;50.832;12.882;2022-11-03T17:38:33;18.00;;;7.57;;
70715;SDS011;59053;50.832;12.882;2022-11-03T17:46:55;18.58;;;8.25;;
70715;SDS011;59053;50.832;12.882;2022-11-03T17:49:20;19.83;;;8.30;;
70715;SDS011;59053;50.832;12.882;2022-11-03T17:51:54;21.13;;;8.50;;
70715;SDS011;59053;50.832;12.882;2022-11-03T17:54:19;20.38;;;8.02;;
70715;SDS011;59053;50.832;12.882;2022-11-03T17:56:44;19.17;;;8.73;;
70715;SDS011;59053;50.832;12.882;2022-11-03T17:59:11;21.97;;;8.87;;
70715;SDS011;59053;50.832;12.882;2022-11-03T18:01:38;17.40;;;8.70;;
70715;SDS011;59053;50.832;12.882;2022-11-03T18:04:13;20.17;;;8.90;;
70715;SDS011;59053;50.832;12.882;2022-11-03T18:06:41;19.73;;;8.40;;
70715;SDS011;59053;50.832;12.882;2022-11-03T18:09:06;20.67;;;8.15;;
70715;SDS011;59053;50.832;12.882;2022-11-03T18:11:40;17.73;;;8.20;;
70715;SDS011;59053;50.832;12.882;2022-11-03T18:14:26;17.85;;;8.13;;
70715;SDS011;59053;50.832;12.882;2022-11-03T18:16:52;17.08;;;8.23;;
70715;SDS011;59053;50.832;12.882;2022-11-03T18:19:34;22.10;;;9.23;;
70715;SDS011;59053;50.832;12.882;2022-11-03T18:22:01;17.85;;;8.30;;